Time;durP1;ratioP1;P1;durP2;ratioP2;P2;SDS_P1;SDS_P2;PMS_P1;PMS_P2;Temp;Humidity;BMP_temperature;BMP_pressure;BME280_temperature;BME280_humidity;BME280_pressure;Samples;Min_cycle;Max_cycle;Signal;HPM_P1;HPM_P2
2022/04/16 00:00:27;;;;;;;7.03;3.40;;;4.00;1.00;;;;;;5085241;27;21236;-79
2022/04/16 00:03:03;;;;;;;6.03;3.20;;;4.00;1.00;;;;;;5057527;28;20223;-77
2022/04/16 00:05:32;;;;;;;6.60;3.60;;;4.00;1.00;;;;;;5063271;28;20250;-78
2022/04/16 00:08:12;;;;;;;6.15;3.60;;;3.90;1.00;;;;;;5097559;28;20224;-78
2022/04/16 00:11:06;;;;;;;5.75;3.25;;;3.90;1.00;;;;;;5068163;28;20210;-81
2022/04/16 00:13:33;;;;;;;4.32;3.33;;;4.00;1.00;;;;;;5102525;28;20232;-82
2022/04/16 00:16:00;;;;;;;4.43;3.10;;;4.00;1.00;;;;;;5095203;27;21424;-80
2022/04/16 00:19:02;;;;;;;5.90;3.22;;;3.90;1.00;;;;;;5104558;27;20216;-83
2022/04/16 00:21:35;;;;;;;5.40;4.00;;;3.90;1.00;;;;;;5105299;27;20223;-79
2022/04/16 00:24:33;;;;;;;6.75;3.80;;;3.90;1.00;;;;;;5089442;28;20266;-84
2022/04/16 00:27:03;;;;;;;6.95;3.40;;;3.90;1.00;;;;;;5068958;28;20303;-82
2022/04/16 00:29:32;;;;;;;5.10;3.35;;;3.90;1.00;;;;;;5060741;28;20225;-78
2022/04/16 00:32:03;;;;;;;5.00;2.88;;;3.90;1.00;;;;;;5095486;27;20258;-77
2022/04/16 00:34:32;;;;;;;4.90;3.05;;;3.90;1.00;;;;;;5104108;27;20243;-82
2022/04/16 00:37:05;;;;;;;4.82;3.40;;;3.80;1.00;;;;;;5103002;28;20253;-80
2022/04/16 00:39:34;;;;;;;5.88;3.67;;;3.80;1.00;;;;;;5085209;28;20425;-77
2022/04/16 00:42:02;;;;;;;4.70;3.10;;;3.80;1.00;;;;;;5075097;27;20250;-83
2022/04/16 00:44:32;;;;;;;6.03;3.58;;;3.80;1.00;;;;;;5083686;27;20294;-81
2022/04/16 00:47:02;;;;;;;8.27;2.88;;;3.80;1.00;;;;;;5082908;27;20323;-77
2022/04/16 00:49:32;;;;;;;5.00;3.35;;;3.90;1.00;;;;;;5101293;27;20261;-78
2022/04/16 00:52:02;;;;;;;6.38;2.92;;;3.80;1.00;;;;;;5062491;28;20271;-80
2022/04/16 00:54:34;;;;;;;4.30;2.80;;;3.80;1.00;;;;;;5100538;28;20262;-83
2022/04/16 00:57:03;;;;;;;4.25;3.03;;;3.80;1.00;;;;;;5091734;28;20239;-80
2022/04/16 00:59:32;;;;;;;4.63;2.58;;;3.70;1.00;;;;;;5107852;28;20262;-77
2022/04/16 01:02:02;;;;;;;4.68;2.60;;;3.70;1.00;;;;;;5104523;28;20224;-83
2022/04/16 01:04:33;;;;;;;4.72;3.03;;;3.60;1.00;;;;;;5105697;28;20240;-78
2022/04/16 01:07:02;;;;;;;5.40;2.78;;;3.60;1.00;;;;;;5107851;28;20227;-80
2022/04/16 01:09:34;;;;;;;5.53;3.17;;;3.60;1.00;;;;;;5103857;28;20249;-80
2022/04/16 01:12:02;;;;;;;4.63;2.40;;;3.60;1.00;;;;;;5094245;28;20229;-83
2022/04/16 01:14:33;;;;;;;3.05;1.95;;;3.60;1.00;;;;;;5088631;27;20257;-83
2022/04/16 01:17:02;;;;;;;3.83;2.45;;;3.60;1.00;;;;;;5065304;28;20249;-76
2022/04/16 01:19:34;;;;;;;6.78;2.45;;;3.50;1.00;;;;;;5112139;27;20224;-83
2022/04/16 01:22:05;;;;;;;5.82;2.50;;;3.50;1.00;;;;;;5069152;28;20263;-80
2022/04/16 01:24:37;;;;;;;6.82;2.80;;;3.50;1.00;;;;;;5053622;22;21288;-80
2022/04/16 01:27:04;;;;;;;7.32;2.88;;;3.50;1.00;;;;;;4993409;28;20233;-77
2022/04/16 01:29:35;;;;;;;3.95;2.42;;;3.50;1.00;;;;;;5013180;28;20229;-77
2022/04/16 01:32:02;;;;;;;4.28;2.40;;;3.50;1.00;;;;;;5006630;28;20241;-78
2022/04/16 01:34:32;;;;;;;6.43;3.50;;;3.50;1.00;;;;;;5043398;28;20238;-78
2022/04/16 01:37:03;;;;;;;5.45;2.65;;;3.40;1.00;;;;;;5009008;28;20248;-83
2022/04/16 01:39:34;;;;;;;4.25;2.50;;;3.40;1.00;;;;;;5033108;28;20230;-78
2022/04/16 01:42:01;;;;;;;8.35;5.38;;;3.40;1.00;;;;;;5042564;28;20221;-78
2022/04/16 01:44:30;;;;;;;3.63;2.22;;;3.40;1.00;;;;;;5021079;28;20246;-78
2022/04/16 01:47:03;;;;;;;5.78;2.40;;;3.40;1.00;;;;;;5036829;28;20292;-78
2022/04/16 01:49:29;;;;;;;5.25;3.85;;;3.30;1.00;;;;;;5035985;28;20230;-84
2022/04/16 01:51:57;;;;;;;6.13;2.95;;;3.30;1.00;;;;;;5030185;28;20241;-84
2022/04/16 01:56:54;;;;;;;5.45;2.00;;;3.20;1.00;;;;;;4993235;28;20242;-82
2022/04/16 01:59:25;;;;;;;5.55;2.25;;;3.20;1.00;;;;;;4995649;28;20320;-84
2022/04/16 02:01:55;;;;;;;3.70;2.40;;;3.20;1.00;;;;;;4974807;28;20232;-85
2022/04/16 02:04:24;;;;;;;3.85;2.05;;;3.20;1.00;;;;;;4994543;28;20282;-85
2022/04/16 02:07:13;;;;;;;4.38;2.42;;;3.20;1.00;;;;;;4977034;28;20283;-77
2022/04/16 02:09:43;;;;;;;10.63;3.10;;;3.10;1.00;;;;;;4946622;28;20240;-80
2022/04/16 02:12:14;;;;;;;3.03;2.00;;;3.10;1.00;;;;;;4955817;28;21619;-84
2022/04/16 02:14:42;;;;;;;5.25;2.65;;;3.10;1.00;;;;;;4932455;28;20232;-85
2022/04/16 02:17:14;;;;;;;5.70;2.72;;;3.10;1.00;;;;;;4944265;28;20252;-83
2022/04/16 02:19:48;;;;;;;4.78;2.45;;;3.10;1.00;;;;;;4947353;28;20251;-84
2022/04/16 02:22:24;;;;;;;4.60;2.75;;;3.10;1.00;;;;;;4916770;28;20241;-80
2022/04/16 02:24:51;;;;;;;4.55;3.00;;;3.20;1.00;;;;;;4952046;23;20309;-77
2022/04/16 02:27:35;;;;;;;4.45;2.55;;;3.20;1.00;;;;;;4963041;28;20238;-84
2022/04/16 02:30:22;;;;;;;5.00;2.40;;;3.20;1.00;;;;;;4962334;28;20227;-86
2022/04/16 02:33:06;;;;;;;4.13;2.50;;;3.30;1.00;;;;;;4950690;28;20258;-79
2022/04/16 02:35:34;;;;;;;7.07;2.78;;;3.40;1.00;;;;;;4975507;28;20239;-84
2022/04/16 02:38:04;;;;;;;3.85;2.60;;;3.50;1.00;;;;;;4964588;28;20254;-77
2022/04/16 02:40:34;;;;;;;4.13;2.47;;;3.50;1.00;;;;;;4975687;28;20240;-83
2022/04/16 02:43:05;;;;;;;5.43;2.50;;;3.60;1.00;;;;;;4994306;23;20256;-79
2022/04/16 02:48:32;;;;;;;4.28;3.17;;;3.80;1.00;;;;;;4965037;28;20265;-77
2022/04/16 02:51:13;;;;;;;3.45;2.75;;;3.80;1.00;;;;;;4951961;28;23758;-82
2022/04/16 02:53:43;;;;;;;4.00;2.35;;;3.90;1.00;;;;;;4954762;28;20287;-77
2022/04/16 02:56:10;;;;;;;6.88;2.80;;;4.00;1.00;;;;;;4966984;28;20239;-78
2022/04/16 02:58:43;;;;;;;5.18;2.67;;;4.00;1.00;;;;;;4961822;28;20807;-84
2022/04/16 03:01:14;;;;;;;4.10;2.30;;;4.10;1.00;;;;;;4958221;28;20248;-80
2022/04/16 03:03:43;;;;;;;3.95;2.50;;;4.20;1.00;;;;;;4963602;28;20231;-83
2022/04/16 03:06:12;;;;;;;4.20;2.85;;;4.20;1.00;;;;;;4950942;28;20262;-85
2022/04/16 03:08:43;;;;;;;5.38;2.35;;;4.30;1.00;;;;;;4962040;28;20232;-84
2022/04/16 03:11:10;;;;;;;6.45;2.78;;;4.40;1.00;;;;;;4963265;28;20310;-78
2022/04/16 03:13:53;;;;;;;5.53;2.92;;;4.50;1.00;;;;;;4967533;28;20271;-84
2022/04/16 03:19:13;;;;;;;4.32;2.35;;;4.40;1.00;;;;;;4893348;28;20265;-77
2022/04/16 03:21:43;;;;;;;4.53;3.03;;;4.30;1.00;;;;;;4963619;28;20223;-84
2022/04/16 03:24:14;;;;;;;5.57;2.30;;;4.30;1.00;;;;;;4954346;28;20216;-84
2022/04/16 03:26:43;;;;;;;6.38;3.05;;;4.40;1.00;;;;;;4942438;28;20312;-86
2022/04/16 03:29:14;;;;;;;4.00;2.40;;;4.40;1.00;;;;;;4979314;28;20235;-85
2022/04/16 03:31:44;;;;;;;5.18;2.55;;;4.40;1.00;;;;;;4955834;28;20239;-77
2022/04/16 03:34:25;;;;;;;5.82;2.20;;;4.40;1.00;;;;;;4985002;22;20212;-81
2022/04/16 03:36:54;;;;;;;9.73;3.05;;;4.40;1.00;;;;;;4982784;28;20265;-80
2022/04/16 03:39:24;;;;;;;5.00;2.50;;;4.50;1.00;;;;;;4988215;28;20458;-83
2022/04/16 03:41:53;;;;;;;3.83;2.78;;;4.50;1.00;;;;;;4969630;28;20459;-80
2022/04/16 03:44:24;;;;;;;4.55;2.75;;;4.50;1.00;;;;;;4990649;28;20317;-84
2022/04/16 03:46:53;;;;;;;3.78;2.80;;;4.50;1.00;;;;;;4990115;28;20242;-80
2022/04/16 03:49:29;;;;;;;4.85;3.22;;;4.50;1.00;;;;;;4980509;28;20481;-84
2022/04/16 03:52:04;;;;;;;5.00;2.60;;;4.50;1.00;;;;;;4969355;28;21100;-77
2022/04/16 04:00:24;;;;;;;5.55;2.60;;;4.40;1.00;;;;;;4976395;28;20293;-77
2022/04/16 04:02:51;;;;;;;4.57;2.10;;;4.50;1.00;;;;;;4975686;28;20277;-83
2022/04/16 04:05:24;;;;;;;4.25;2.28;;;4.50;1.00;;;;;;4986893;28;20219;-83
2022/04/16 04:07:54;;;;;;;7.57;2.80;;;4.50;1.00;;;;;;4966428;28;20327;-78
2022/04/16 04:10:32;;;;;;;3.72;2.25;;;4.50;1.00;;;;;;5002038;28;20239;-84
2022/04/16 04:13:08;;;;;;;3.05;2.20;;;4.50;1.00;;;;;;4993701;28;20337;-83
2022/04/16 04:15:43;;;;;;;2.72;1.95;;;4.50;1.00;;;;;;4982573;28;20400;-80
2022/04/16 04:18:26;;;;;;;4.32;2.40;;;4.50;1.00;;;;;;4975040;28;20274;-78
2022/04/16 04:20:54;;;;;;;5.55;2.30;;;4.40;1.00;;;;;;4968322;28;20244;-79
2022/04/16 04:23:23;;;;;;;3.92;2.38;;;4.40;1.00;;;;;;4987760;28;20301;-84
2022/04/16 04:26:05;;;;;;;5.03;2.00;;;4.50;1.00;;;;;;4971969;28;20298;-79
2022/04/16 04:28:35;;;;;;;6.35;3.28;;;4.50;1.00;;;;;;4954147;28;20220;-78
2022/04/16 04:31:04;;;;;;;4.30;2.30;;;4.50;1.00;;;;;;4978442;28;20254;-78
2022/04/16 04:33:35;;;;;;;5.00;2.65;;;4.50;1.00;;;;;;4988355;28;20583;-82
2022/04/16 04:36:03;;;;;;;4.10;2.28;;;4.50;1.00;;;;;;4988020;28;20207;-82
2022/04/16 04:38:33;;;;;;;4.00;2.70;;;4.60;1.00;;;;;;5003780;28;20253;-84
2022/04/16 04:41:04;;;;;;;3.90;2.15;;;4.60;1.00;;;;;;4996777;28;20374;-77
2022/04/16 04:43:34;;;;;;;5.80;2.60;;;4.60;1.00;;;;;;4995930;28;20235;-79
2022/04/16 04:46:12;;;;;;;3.15;1.90;;;4.60;1.00;;;;;;4981189;28;20227;-77
2022/04/16 04:48:39;;;;;;;3.83;2.35;;;4.60;1.00;;;;;;4986662;28;20799;-78
2022/04/16 04:51:33;;;;;;;5.68;2.05;;;4.60;1.00;;;;;;4959370;28;20246;-83
2022/04/16 04:54:00;;;;;;;5.65;2.55;;;4.60;1.00;;;;;;4843087;28;20253;-84
2022/04/16 04:56:42;;;;;;;4.82;2.40;;;4.70;1.00;;;;;;4979825;28;20340;-83
2022/04/16 04:59:24;;;;;;;5.65;2.80;;;4.70;1.00;;;;;;4993757;28;20355;-82
2022/04/16 05:01:57;;;;;;;5.40;2.75;;;4.80;1.00;;;;;;4984727;28;20236;-83
2022/04/16 05:04:24;;;;;;;10.85;7.07;;;4.80;1.00;;;;;;4979940;28;20240;-79
2022/04/16 05:07:04;;;;;;;4.28;2.42;;;4.90;1.00;;;;;;4982187;28;20895;-80
2022/04/16 05:09:33;;;;;;;3.55;2.60;;;4.90;1.00;;;;;;4993904;28;20254;-80
2022/04/16 05:12:04;;;;;;;4.45;2.22;;;4.80;1.00;;;;;;4983952;28;20242;-83
2022/04/16 05:14:35;;;;;;;4.60;2.40;;;4.90;1.00;;;;;;4999943;28;20238;-79
2022/04/16 05:17:05;;;;;;;4.45;2.35;;;5.00;1.00;;;;;;4973761;28;20233;-78
2022/04/16 05:19:33;;;;;;;5.70;3.80;;;5.10;1.00;;;;;;5014767;28;20266;-78
2022/04/16 05:22:00;;;;;;;6.90;2.30;;;5.10;1.00;;;;;;4986049;28;20241;-82
2022/04/16 05:24:36;;;;;;;4.78;2.10;;;5.20;1.00;;;;;;5004358;28;20241;-82
2022/04/16 05:27:03;;;;;;;4.30;2.55;;;5.20;1.00;;;;;;5001631;28;20260;-77
2022/04/16 05:29:48;;;;;;;4.43;2.63;;;5.30;1.00;;;;;;4996408;28;20341;-83
2022/04/16 05:32:24;;;;;;;7.70;2.97;;;5.30;1.00;;;;;;4978974;28;20222;-77
2022/04/16 05:34:55;;;;;;;3.55;2.38;;;5.40;1.00;;;;;;4956063;28;20243;-77
2022/04/16 05:37:24;;;;;;;4.95;2.53;;;5.40;1.00;;;;;;4965021;28;20957;-80
2022/04/16 05:39:53;;;;;;;4.47;3.53;;;5.50;1.00;;;;;;4974974;28;20345;-85
2022/04/16 05:42:26;;;;;;;5.57;3.08;;;5.60;1.00;;;;;;4980804;28;20290;-85
2022/04/16 05:45:15;;;;;;;4.57;2.67;;;5.70;1.00;;;;;;4995579;28;20245;-82
2022/04/16 05:47:53;;;;;;;4.15;2.40;;;5.70;1.00;;;;;;4982932;28;20231;-80
2022/04/16 05:50:33;;;;;;;4.30;2.13;;;5.80;1.00;;;;;;5001076;28;20237;-79
2022/04/16 05:53:09;;;;;;;6.35;2.60;;;5.70;1.00;;;;;;4998337;22;20241;-79
2022/04/16 05:55:57;;;;;;;5.65;2.90;;;5.90;1.00;;;;;;4962409;28;20338;-79
2022/04/16 05:58:28;;;;;;;5.70;2.65;;;5.90;1.00;;;;;;4951257;28;20328;-79
2022/04/16 06:01:08;;;;;;;3.70;3.00;;;5.90;1.00;;;;;;4958764;28;20227;-83
2022/04/16 06:03:39;;;;;;;5.00;2.80;;;6.00;1.00;;;;;;4989481;23;20246;-81
2022/04/16 06:09:28;;;;;;;7.50;3.97;;;6.10;1.00;;;;;;4879901;29;20262;-80
2022/04/16 06:12:09;;;;;;;4.43;2.60;;;6.30;1.00;;;;;;4952229;28;20255;-84
2022/04/16 06:14:35;;;;;;;6.28;4.03;;;6.40;1.00;;;;;;4993901;23;20243;-80
2022/04/16 06:17:06;;;;;;;5.93;2.45;;;6.50;1.00;;;;;;4992596;28;20314;-80
2022/04/16 06:19:34;;;;;;;4.68;2.53;;;6.50;1.00;;;;;;4992420;28;20247;-77
2022/04/16 06:22:06;;;;;;;4.95;2.65;;;6.40;1.00;;;;;;4993616;28;20243;-84
2022/04/16 06:24:36;;;;;;;4.32;2.78;;;6.60;1.00;;;;;;4975658;28;20244;-82
2022/04/16 06:27:07;;;;;;;5.53;3.15;;;6.60;1.00;;;;;;4977152;28;20224;-84
2022/04/16 06:29:36;;;;;;;6.25;2.58;;;6.70;1.00;;;;;;4977068;28;20228;-83
2022/04/16 06:32:27;;;;;;;5.45;3.28;;;6.90;1.00;;;;;;4978740;28;20285;-80
2022/04/16 06:35:08;;;;;;;5.78;2.58;;;7.00;1.00;;;;;;4983422;28;20236;-83
2022/04/16 06:37:48;;;;;;;4.53;2.63;;;7.10;1.00;;;;;;5025497;23;20239;-78
2022/04/16 06:40:18;;;;;;;8.35;2.78;;;7.10;1.00;;;;;;5002078;28;20234;-80
2022/04/16 06:42:58;;;;;;;;;;;;;;;;;;;;;
2022/04/16 06:45:33;;;;;;;4.25;2.60;;;7.30;1.00;;;;;;4978170;28;41167;-79
2022/04/16 07:10:37;;;;;;;8.45;3.13;;;7.40;1.00;;;;;;4993470;28;20240;-80
2022/04/16 07:13:26;;;;;;;;;;;;;;;;;;;;;
2022/04/16 07:41:36;;;;;;;8.18;7.47;;;9.40;1.00;;;;;;4795424;29;20515;-82
2022/04/16 07:44:06;;;;;;;9.73;7.93;;;9.20;1.00;;;;;;4868890;28;20241;-82
2022/04/16 07:46:35;;;;;;;11.13;7.83;;;9.10;1.00;;;;;;4960441;28;20248;-78
2022/04/16 07:49:05;;;;;;;8.40;7.60;;;9.40;1.00;;;;;;4963738;28;20431;-81
2022/04/16 07:51:35;;;;;;;8.63;6.20;;;9.70;1.00;;;;;;4975957;28;20447;-78
2022/04/16 07:54:05;;;;;;;4.85;4.40;;;10.00;1.00;;;;;;4977083;28;20433;-80
2022/04/16 07:59:25;;;;;;;4.43;3.03;;;9.80;1.00;;;;;;4865451;29;20496;-79
2022/04/16 08:02:14;;;;;;;3.40;2.72;;;9.60;1.00;;;;;;4890793;29;20650;-78
2022/04/16 08:05:06;;;;;;;5.43;3.70;;;9.50;1.00;;;;;;4976475;28;20323;-77
2022/04/16 08:07:37;;;;;;;4.22;2.95;;;9.80;1.00;;;;;;4989335;28;20245;-86
2022/04/16 08:10:14;;;;;;;6.40;3.10;;;10.10;1.00;;;;;;4979927;28;20274;-84
2022/04/16 08:12:55;;;;;;;5.10;3.70;;;10.30;1.00;;;;;;4964295;28;20428;-86
2022/04/16 08:15:28;;;;;;;4.20;2.97;;;10.50;1.00;;;;;;4992320;28;20447;-86
2022/04/16 08:17:55;;;;;;;3.93;2.60;;;10.70;1.00;;;;;;4948675;28;20447;-86
2022/04/16 08:20:25;;;;;;;3.37;3.00;;;10.80;1.00;;;;;;4989916;28;20428;-85
2022/04/16 08:22:57;;;;;;;3.60;2.87;;;10.90;1.00;;;;;;4979498;28;20447;-85
2022/04/16 08:25:45;;;;;;;4.30;2.90;;;11.00;1.00;;;;;;4981798;28;20487;-86
2022/04/16 08:28:18;;;;;;;3.90;3.10;;;10.90;1.00;;;;;;4987960;28;20491;-85
2022/04/16 08:30:49;;;;;;;4.33;3.30;;;11.10;1.00;;;;;;4985915;28;20428;-86
2022/04/16 08:33:25;;;;;;;3.50;2.90;;;11.20;1.00;;;;;;4979285;28;20488;-86
2022/04/16 08:36:24;;;;;;;;;;;;;;;;;;;;;
2022/04/16 08:39:26;;;;;;;;;;;;;;;;;;;;;
2022/04/16 08:42:06;;;;;;;8.17;7.43;;;11.40;1.00;;;;;;4942073;28;40648;-86
2022/04/16 08:44:58;;;;;;;5.60;2.57;;;11.20;1.00;;;;;;5008109;28;20487;-86
2022/04/16 08:47:25;;;;;;;4.17;3.07;;;10.90;1.00;;;;;;4994116;28;21371;-84
2022/04/16 08:49:57;;;;;;;4.37;3.33;;;10.80;1.00;;;;;;5003049;28;20466;-84
2022/04/16 08:52:36;;;;;;;4.27;3.10;;;10.70;1.00;;;;;;4992631;28;20442;-81
2022/04/16 08:55:17;;;;;;;4.00;2.70;;;10.60;1.00;;;;;;5001360;28;20433;-83
2022/04/16 08:57:45;;;;;;;4.00;3.27;;;10.70;1.00;;;;;;4993841;28;20443;-84
2022/04/16 09:00:28;;;;;;;3.80;3.03;;;10.90;1.00;;;;;;4994492;28;20564;-84
2022/04/16 09:03:09;;;;;;;4.30;3.50;;;11.10;1.00;;;;;;4993762;28;20492;-84
2022/04/16 09:05:47;;;;;;;4.00;3.47;;;11.10;1.00;;;;;;4981174;28;20474;-84
2022/04/16 09:08:28;;;;;;;6.20;3.03;;;11.20;1.00;;;;;;4991162;28;20428;-84
2022/04/16 09:11:06;;;;;;;3.47;3.17;;;11.20;1.00;;;;;;4979225;28;20475;-79
2022/04/16 09:13:35;;;;;;;7.10;4.50;;;11.20;1.00;;;;;;4982251;28;20484;-79
2022/04/16 09:16:07;;;;;;;3.73;3.40;;;11.20;1.00;;;;;;4986155;28;20626;-77
2022/04/16 09:18:55;;;;;;;4.10;3.30;;;11.30;1.00;;;;;;4981998;28;20543;-79
2022/04/16 09:21:28;;;;;;;4.60;3.53;;;11.30;1.00;;;;;;4977628;28;20473;-78
2022/04/16 09:24:01;;;;;;;3.50;3.20;;;11.50;1.00;;;;;;4982752;28;20416;-79
2022/04/16 09:26:36;;;;;;;3.60;3.20;;;11.70;1.00;;;;;;4976944;28;20452;-79
2022/04/16 09:29:15;;;;;;;5.13;3.60;;;12.30;1.00;;;;;;4982690;28;20448;-77
2022/04/16 09:31:55;;;;;;;10.77;9.77;;;13.70;1.00;;;;;;4982902;28;20451;-77
2022/04/16 09:34:27;;;;;;;3.60;2.43;;;15.60;1.00;;;;;;4983464;28;20880;-78
2022/04/16 09:36:55;;;;;;;4.20;3.00;;;17.50;1.00;;;;;;4979811;28;20506;-78
2022/04/16 09:39:28;;;;;;;3.40;2.40;;;18.80;1.00;;;;;;4987423;28;20505;-80
2022/04/16 09:41:58;;;;;;;4.03;2.37;;;19.60;1.00;;;;;;4981067;28;20497;-80
2022/04/16 09:44:27;;;;;;;4.10;2.13;;;20.40;1.00;;;;;;4982600;28;20418;-79
2022/04/16 09:46:57;;;;;;;3.37;2.20;;;20.60;1.00;;;;;;4984285;28;20456;-80
2022/04/16 09:49:26;;;;;;;3.43;2.20;;;21.20;1.00;;;;;;4996707;28;20444;-78
2022/04/16 09:52:00;;;;;;;3.43;2.20;;;21.40;1.00;;;;;;4991359;28;20484;-77
2022/04/16 09:54:29;;;;;;;3.97;2.60;;;21.40;1.00;;;;;;4990821;28;20432;-78
2022/04/16 09:57:05;;;;;;;2.77;2.27;;;22.00;1.00;;;;;;4981369;28;21392;-78
2022/04/16 09:59:36;;;;;;;2.93;2.50;;;22.60;1.00;;;;;;4977649;28;20547;-79
2022/04/16 10:02:10;;;;;;;3.00;2.67;;;22.80;1.00;;;;;;4981854;28;20442;-78
2022/04/16 10:04:39;;;;;;;4.13;3.00;;;23.10;1.00;;;;;;4975869;28;21317;-78
2022/04/16 10:07:07;;;;;;;9.03;7.20;;;23.80;1.00;;;;;;4987367;28;20619;-80
2022/04/16 10:09:55;;;;;;;3.70;2.80;;;24.20;1.00;;;;;;4974294;28;20450;-77
2022/04/16 10:15:16;;;;;;;3.30;3.00;;;25.10;1.00;;;;;;4986184;28;20460;-77
2022/04/16 10:17:58;;;;;;;3.03;2.70;;;25.40;1.00;;;;;;4966227;28;21229;-78
2022/04/16 10:20:27;;;;;;;4.60;2.57;;;25.90;1.00;;;;;;4957674;28;20419;-78
2022/04/16 10:22:55;;;;;;;3.90;2.50;;;26.30;1.00;;;;;;4984990;28;20465;-79
2022/04/16 10:25:31;;;;;;;4.57;2.30;;;26.40;1.00;;;;;;4979864;28;20467;-80
2022/04/16 10:28:15;;;;;;;3.67;3.07;;;26.70;1.00;;;;;;4973948;28;21409;-80
2022/04/16 10:31:11;;;;;;;4.50;4.10;;;26.60;1.00;;;;;;4944096;28;20425;-78
2022/04/16 10:33:44;;;;;;;3.63;2.80;;;25.90;1.00;;;;;;4959338;28;20481;-79
2022/04/16 10:36:16;;;;;;;3.40;2.80;;;25.60;1.00;;;;;;4976790;28;20522;-79
2022/04/16 10:38:47;;;;;;;3.40;2.80;;;25.40;1.00;;;;;;4977339;28;20485;-78
2022/04/16 10:41:21;;;;;;;3.23;2.67;;;26.40;1.00;;;;;;4977538;28;21844;-79
2022/04/16 10:43:54;;;;;;;3.90;2.37;;;26.00;1.00;;;;;;4970733;28;21302;-78
2022/04/16 10:46:38;;;;;;;2.90;2.23;;;25.40;1.00;;;;;;4978062;28;20626;-79
2022/04/16 10:49:09;;;;;;;3.20;2.00;;;25.70;1.00;;;;;;4982272;28;20537;-80
2022/04/16 10:51:37;;;;;;;3.20;2.40;;;26.50;1.00;;;;;;4974973;28;21183;-78
2022/04/16 10:54:36;;;;;;;3.60;2.13;;;26.80;1.00;;;;;;4975788;28;20496;-80
2022/04/16 11:00:45;;;;;;;4.83;1.80;;;26.90;1.00;;;;;;4856131;29;20545;-78
2022/04/16 11:03:34;;;;;;;2.33;1.30;;;27.60;1.00;;;;;;4974496;28;20423;-78
2022/04/16 11:06:04;;;;;;;3.20;1.70;;;28.30;1.00;;;;;;4984305;28;20535;-79
2022/04/16 11:08:37;;;;;;;3.37;1.80;;;28.80;1.00;;;;;;4987120;28;20430;-77
2022/04/16 11:11:15;;;;;;;2.70;1.57;;;29.30;1.00;;;;;;4954144;28;20535;-80
2022/04/16 11:13:47;;;;;;;2.00;1.27;;;29.70;1.00;;;;;;4973622;28;20441;-81
2022/04/16 11:16:27;;;;;;;3.57;2.90;;;30.30;1.00;;;;;;4980769;28;20521;-78
2022/04/16 11:18:55;;;;;;;8.90;8.00;;;30.60;1.00;;;;;;4979992;28;20514;-80
2022/04/16 11:21:29;;;;;;;3.73;1.80;;;29.90;1.00;;;;;;4986740;28;20487;-78
2022/04/16 11:24:06;;;;;;;5.30;1.93;;;29.80;1.00;;;;;;4990477;28;20414;-78
2022/04/16 11:35:16;;;;;;;2.43;1.40;;;29.30;1.00;;;;;;4908397;28;20479;-78
2022/04/16 11:37:57;;;;;;;3.60;2.13;;;29.10;1.00;;;;;;4970692;28;20462;-77
2022/04/16 11:40:26;;;;;;;2.10;1.20;;;29.40;1.00;;;;;;4978905;28;20459;-78
2022/04/16 11:42:57;;;;;;;3.07;1.40;;;29.80;1.00;;;;;;4979659;28;20481;-79
2022/04/16 11:45:26;;;;;;;2.83;1.40;;;30.50;1.00;;;;;;4981596;28;20425;-79
2022/04/16 11:47:56;;;;;;;2.30;1.00;;;31.10;1.00;;;;;;4975465;28;20515;-78
2022/04/16 11:50:26;;;;;;;2.90;1.50;;;31.50;1.00;;;;;;4986523;28;20517;-76
2022/04/16 11:52:57;;;;;;;2.27;0.87;;;31.20;1.00;;;;;;4973918;28;20466;-77
2022/04/16 11:55:24;;;;;;;2.67;1.10;;;31.30;1.00;;;;;;4976236;28;20477;-80
2022/04/16 11:57:55;;;;;;;3.00;1.90;;;31.30;1.00;;;;;;4978489;28;20439;-77
2022/04/16 12:00:26;;;;;;;2.47;1.20;;;31.80;1.00;;;;;;4974541;28;20482;-79
2022/04/16 12:02:57;;;;;;;2.27;1.43;;;32.40;1.00;;;;;;4983656;28;20628;-78
2022/04/16 12:05:28;;;;;;;3.00;1.40;;;32.60;1.00;;;;;;4978530;28;20510;-77
2022/04/16 12:07:57;;;;;;;3.63;1.23;;;33.00;1.00;;;;;;4988076;28;20443;-80
2022/04/16 12:10:25;;;;;;;2.13;0.90;;;33.20;1.00;;;;;;4978129;28;20427;-77
2022/04/16 12:13:09;;;;;;;2.97;0.73;;;32.90;1.00;;;;;;4986222;28;20442;-79
2022/04/16 12:15:45;;;;;;;3.23;1.30;;;31.90;1.00;;;;;;4978769;28;21136;-77
2022/04/16 12:18:18;;;;;;;2.20;1.00;;;30.80;1.00;;;;;;4988922;28;20450;-78
2022/04/16 12:20:48;;;;;;;3.10;0.90;;;30.60;1.00;;;;;;4980075;28;20468;-78
2022/04/16 12:23:28;;;;;;;2.33;1.40;;;31.40;1.00;;;;;;4964169;28;20509;-75
2022/04/16 12:26:03;;;;;;;2.60;1.10;;;31.50;1.00;;;;;;4975073;28;20477;-77
2022/04/16 12:28:43;;;;;;;3.53;1.23;;;31.90;1.00;;;;;;4975373;28;20785;-79
2022/04/16 12:31:10;;;;;;;3.10;1.00;;;32.40;1.00;;;;;;4983662;28;20565;-77
2022/04/16 12:33:37;;;;;;;2.03;0.73;;;32.10;1.00;;;;;;4985035;28;20444;-79
2022/04/16 12:36:06;;;;;;;1.90;0.80;;;32.50;1.00;;;;;;4965411;28;20493;-77
2022/04/16 12:41:26;;;;;;;1.90;0.70;;;31.70;1.00;;;;;;4981925;28;20478;-78
2022/04/16 12:44:07;;;;;;;2.67;1.13;;;31.20;1.00;;;;;;4971215;28;20422;-78
2022/04/16 12:46:47;;;;;;;2.70;1.23;;;31.50;1.00;;;;;;4975782;28;20475;-79
2022/04/16 12:53:13;;;;;;;2.47;0.80;;;31.90;1.00;;;;;;4838336;29;20508;-76
2022/04/16 12:55:49;;;;;;;2.50;1.20;;;32.30;1.00;;;;;;4905789;28;20444;-77
2022/04/16 12:58:18;;;;;;;3.37;0.90;;;32.30;1.00;;;;;;4961474;28;20430;-77
2022/04/16 13:00:47;;;;;;;3.53;1.03;;;31.50;1.00;;;;;;4955986;28;20450;-78
2022/04/16 13:03:38;;;;;;;;;;;;;;;;;;;;;
2022/04/16 13:06:25;;;;;;;3.97;1.60;;;31.70;1.00;;;;;;4961403;28;49724;-77
2022/04/16 13:09:16;;;;;;;1.90;0.80;;;31.80;1.00;;;;;;4917234;28;20453;-79
2022/04/16 13:11:56;;;;;;;2.20;1.00;;;31.40;1.00;;;;;;4965629;28;20448;-77
2022/04/16 13:14:23;;;;;;;2.67;0.70;;;31.20;1.00;;;;;;4978330;28;20439;-78
2022/04/16 13:17:07;;;;;;;2.60;1.30;;;31.30;1.00;;;;;;4947212;28;20601;-80
2022/04/16 13:20:00;;;;;;;2.80;0.80;;;31.40;1.00;;;;;;4958924;28;21751;-78
2022/04/16 13:22:29;;;;;;;2.67;1.17;;;32.10;1.00;;;;;;4955128;28;20999;-77
2022/04/16 13:24:59;;;;;;;2.83;0.83;;;32.80;1.00;;;;;;4979921;28;20444;-77
2022/04/16 13:27:55;;;;;;;2.03;1.03;;;33.00;1.00;;;;;;4968652;28;20443;-78
2022/04/16 13:30:35;;;;;;;2.20;0.80;;;32.70;1.00;;;;;;4969182;28;20466;-78
2022/04/16 13:33:28;;;;;;;3.10;1.17;;;32.70;1.00;;;;;;4952472;28;22212;-78
2022/04/16 13:35:56;;;;;;;4.07;1.53;;;32.70;1.00;;;;;;4975440;28;20423;-79
2022/04/16 13:38:23;;;;;;;2.30;0.90;;;32.50;1.00;;;;;;4973225;28;20511;-78
2022/04/16 13:43:40;;;;;;;3.10;1.20;;;31.40;1.00;;;;;;4976003;28;20471;-78
2022/04/16 13:46:08;;;;;;;2.60;1.10;;;31.70;1.00;;;;;;4961859;28;20544;-77
2022/04/16 13:48:37;;;;;;;3.50;1.20;;;31.60;1.00;;;;;;4988925;28;20449;-77
2022/04/16 13:51:07;;;;;;;1.93;0.70;;;31.70;1.00;;;;;;4980031;28;20451;-77
2022/04/16 13:53:37;;;;;;;2.50;1.20;;;31.30;1.00;;;;;;4981505;28;20446;-77
2022/04/16 13:56:04;;;;;;;2.40;0.90;;;30.90;1.00;;;;;;4979212;28;20458;-78
2022/04/16 13:58:47;;;;;;;2.93;1.70;;;30.80;1.00;;;;;;4974082;28;20456;-77
2022/04/16 14:01:17;;;;;;;2.20;1.10;;;30.80;1.00;;;;;;4983458;28;20426;-78
2022/04/16 14:03:54;;;;;;;2.10;1.00;;;31.70;1.00;;;;;;4980184;28;20512;-79
2022/04/16 14:06:25;;;;;;;3.80;1.33;;;31.80;1.00;;;;;;4985877;28;20500;-78
2022/04/16 14:09:18;;;;;;;3.03;1.00;;;31.40;1.00;;;;;;4985977;28;20462;-79
2022/04/16 14:11:46;;;;;;;2.77;1.40;;;31.90;1.00;;;;;;4986349;28;20435;-79
2022/04/16 14:14:16;;;;;;;2.23;1.10;;;32.20;1.00;;;;;;4986887;28;20552;-78
2022/04/16 14:16:46;;;;;;;2.33;0.97;;;33.10;1.00;;;;;;4971934;28;20669;-81
2022/04/16 14:19:25;;;;;;;3.30;1.00;;;33.00;1.00;;;;;;4996975;28;20432;-77
2022/04/16 14:21:56;;;;;;;2.97;1.00;;;31.70;1.00;;;;;;4961184;28;20438;-78
2022/04/16 14:24:23;;;;;;;5.00;1.93;;;31.60;1.00;;;;;;4979712;28;21342;-78
2022/04/16 14:26:50;;;;;;;3.77;0.93;;;31.60;1.00;;;;;;4986307;28;21511;-78
2022/04/16 14:29:25;;;;;;;2.87;1.23;;;31.40;1.00;;;;;;4977591;28;20446;-78
2022/04/16 14:31:57;;;;;;;3.03;1.30;;;29.50;1.00;;;;;;4966076;28;20452;-79
2022/04/16 14:34:27;;;;;;;4.33;1.13;;;27.30;1.00;;;;;;4991540;28;20423;-76
2022/04/16 14:36:54;;;;;;;1.87;0.70;;;24.60;1.00;;;;;;4983045;28;20515;-77
2022/04/16 14:39:26;;;;;;;2.37;1.00;;;22.90;1.00;;;;;;4976821;28;20482;-78
2022/04/16 14:42:06;;;;;;;3.03;1.03;;;21.40;1.00;;;;;;4986733;28;20453;-77
2022/04/16 14:44:40;;;;;;;3.00;1.30;;;20.20;1.00;;;;;;4985105;28;20438;-77
2022/04/16 14:47:07;;;;;;;3.23;1.10;;;19.20;1.00;;;;;;4961135;28;21550;-78
2022/04/16 14:49:36;;;;;;;2.33;1.10;;;18.50;1.00;;;;;;4966085;28;20454;-79
2022/04/16 14:54:57;;;;;;;2.00;0.90;;;17.80;1.00;;;;;;4957610;28;20477;-78
2022/04/16 14:57:27;;;;;;;3.30;1.27;;;17.30;1.00;;;;;;4985099;28;20419;-77
2022/04/16 15:00:01;;;;;;;2.27;1.40;;;17.30;1.00;;;;;;4976907;28;20452;-78
2022/04/16 15:02:38;;;;;;;3.20;1.10;;;17.40;1.00;;;;;;4982755;28;20435;-77
2022/04/16 15:05:09;;;;;;;2.20;1.10;;;17.50;1.00;;;;;;4979239;28;20435;-89
2022/04/16 15:07:39;;;;;;;2.83;0.83;;;17.40;1.00;;;;;;4979878;28;20466;-78
2022/04/16 15:10:07;;;;;;;2.30;1.20;;;17.30;1.00;;;;;;4970268;28;20600;-79
2022/04/16 15:12:34;;;;;;;2.20;1.20;;;17.20;1.00;;;;;;4979440;28;20457;-77
2022/04/16 15:15:10;;;;;;;2.20;1.07;;;17.10;1.00;;;;;;4995865;23;20474;-78
2022/04/16 15:17:39;;;;;;;2.67;1.00;;;17.10;1.00;;;;;;4982074;28;20427;-77